This is the latest recevied weather packets stored in our database for station/object VK4TOM-13. If no packets are shown the sender has not sent any weather packets the latest 10 day(s).
| Time | Temp. | Humidity | Pressure | Rain* | Wind** | Luminosity | Snow |
|---|---|---|---|---|---|---|---|
| 1788328445 | 31.11° C | 42% | 1018.3 hPa | 0 mm | - | - | - |
| 1788327244 | 31.11° C | 40% | 1018.4 hPa | 0 mm | - | - | - |
| 1788327025 | 31.67° C | 39% | 1018.4 hPa | 0 mm | - | - | - |
| 1788326676 | 31.11° C | 40% | 1018.5 hPa | 0 mm | - | - | - |
| 1788326075 | 31.11° C | 40% | 1018.5 hPa | 0 mm | - | - | - |
| 1788325474 | 31.67° C | 37% | 1018.6 hPa | 0 mm | - | - | - |
| 1788324873 | 32.22° C | 35% | 1018.7 hPa | 0 mm | - | - | - |
| 1788324271 | 31.67° C | 37% | 1018.9 hPa | 0 mm | - | - | - |
| 1788323670 | 31.67° C | 38% | 1019.1 hPa | 0 mm | - | - | - |
| 1788323069 | 31.67° C | 37% | 1019.2 hPa | 0 mm | - | - | - |
| 1788322469 | 31.11° C | 39% | 1019.4 hPa | 0 mm | - | - | - |
| 1788321867 | 31.11° C | 40% | 1019.6 hPa | 0 mm | - | - | - |
| 1788321266 | 30.56° C | 41% | 1019.8 hPa | 0 mm | - | - | - |
| 1788320665 | 30.56° C | 42% | 1020 hPa | 0 mm | - | - | - |
| 1788318862 | 30° C | 50% | 1020.6 hPa | 0 mm | - | - | - |
| 1788316458 | 28.33° C | 70% | 1021.6 hPa | 0 mm | - | - | - |
| 1788315857 | 28.33° C | 70% | 1021.8 hPa | 0 mm | - | - | - |
| 1788314654 | 28.33° C | 70% | 1022.2 hPa | 0 mm | - | - | - |
| 1788313452 | 27.78° C | 70% | 1022.6 hPa | 0 mm | - | - | - |
| 1788312250 | 27.22° C | 70% | 1023.2 hPa | 0 mm | - | - | - |
| 1788311649 | 27.22° C | 70% | 1023.3 hPa | 0 mm | - | - | - |
| 1788309846 | 26.11° C | 70% | 1024 hPa | 0 mm | - | - | - |
| 1788304436 | 21.11° C | 70% | 1025.5 hPa | 0 mm | - | - | - |
| 1788303835 | 21.11° C | 70% | 1025.5 hPa | 0 mm | - | - | - |
| 1788303234 | 21.11° C | 70% | 1025.4 hPa | 0 mm | - | - | - |
* Rain since midnight (hover to see other rain measurements)
** Current wind speed in m/s (hover to see current wind gust speed)